Kezdőlap
METAR-TAF:

METAR-TAF

Repülőterek :

Dzsidda, Szaúd-Arábia

földrajzi szélesség: 21-42N, földrajzi hosszúság: 039-11E, magasság: 15 m

Jelenlegi meteorológiai megfigyelések

A jelentés 25 perccel ezelõtt készült, 14:00 UTC
Nyugati szél 8 kt
Hőmérséklet 38°C
Páratartalom 27%
Légköri nyomás 1002 hPa
Látótávolság 10 km, vagy több
felhőtlen 1500 m magasságban, és nincs gomolyfelhõ

METAR: OEJN 161400Z 27008KT CAVOK 38/16 Q1002 NOSIG

Idő: 17:25 (14:25 UTC)

Előrejelzés

A jelentés 3 órával és 25 perccel ezelõtt készült, 11:00 UTC
Az előrejelzés 16-én 12 óra UTC és 17-én 18 óra UTC között érvényes
Észak-északnyugati szél 15 kt
Látótávolság 10 km, vagy több
felhőtlen 1500 m magasságban, és nincs gomolyfelhõ
16-én 20 óra UTC és 16-én 22 óra UTC között fokozatosan kialakuló
Különbözõ irányokból fújó szél 3 kt

TAF: OEJN 161100Z 1612/1718 33015KT CAVOK BECMG 1620/1622 VRB03KT

Meteorológiai megfigyelések és előrejelzések több, mint 4000 repülőtéren (METAR és TAF jelentéseket).

A térképen piros és sárga pontok jelzik az elérhető meteorológiai állomásokat.

Mozgassa az egeret a pont fölött, hogy megjelenjen az állomás neve.

Azután kattintson az időjárási megfigyelések és előrejelzések megtekintéséhez.

A térkép megváltoztatása: kattintson a fekete keresztel jelölt zöld gombra ráközelítéshez, a vonallal jelölt zöld gombra távolításhoz, vagy a zöld nyilakra a szomszédos térképek eléréséhez.


METAR-TAF: